sensor_id;sensor_type;location;lat;lon;timestamp;pressure;altitude;pressure_sealevel;temperature;humidity
60355;BME280;46198;51.464;-0.066;2023-05-11T00:01:32;101358.66;;;11.10;100.00
60355;BME280;46198;51.464;-0.066;2023-05-11T00:04:00;101360.97;;;11.06;100.00
60355;BME280;46198;51.464;-0.066;2023-05-11T00:06:30;101350.72;;;11.02;100.00
60355;BME280;46198;51.464;-0.066;2023-05-11T00:09:01;101355.75;;;10.98;100.00
60355;BME280;46198;51.464;-0.066;2023-05-11T00:11:31;101359.72;;;10.96;100.00
60355;BME280;46198;51.464;-0.066;2023-05-11T00:13:59;101357.66;;;10.91;100.00
60355;BME280;46198;51.464;-0.066;2023-05-11T00:16:27;101353.47;;;10.89;100.00
60355;BME280;46198;51.464;-0.066;2023-05-11T00:19:21;101350.94;;;10.87;100.00
60355;BME280;46198;51.464;-0.066;2023-05-11T00:21:51;101357.84;;;10.83;100.00
60355;BME280;46198;51.464;-0.066;2023-05-11T00:24:19;101356.16;;;10.82;100.00
60355;BME280;46198;51.464;-0.066;2023-05-11T00:26:47;101351.16;;;10.79;100.00
60355;BME280;46198;51.464;-0.066;2023-05-11T00:29:15;101351.16;;;10.79;100.00
60355;BME280;46198;51.464;-0.066;2023-05-11T00:31:44;101349.69;;;10.76;100.00
60355;BME280;46198;51.464;-0.066;2023-05-11T00:34:14;101359.91;;;10.74;100.00
60355;BME280;46198;51.464;-0.066;2023-05-11T00:36:43;101352.00;;;10.73;100.00
60355;BME280;46198;51.464;-0.066;2023-05-11T00:39:13;101357.22;;;10.68;100.00
60355;BME280;46198;51.464;-0.066;2023-05-11T00:41:41;101350.09;;;10.67;100.00
60355;BME280;46198;51.464;-0.066;2023-05-11T00:44:09;101345.06;;;10.63;100.00
60355;BME280;46198;51.464;-0.066;2023-05-11T00:46:38;101352.41;;;10.63;100.00
60355;BME280;46198;51.464;-0.066;2023-05-11T00:49:06;101355.53;;;10.60;100.00
60355;BME280;46198;51.464;-0.066;2023-05-11T00:51:35;101352.19;;;10.58;100.00
60355;BME280;46198;51.464;-0.066;2023-05-11T00:54:04;101353.22;;;10.57;100.00
60355;BME280;46198;51.464;-0.066;2023-05-11T00:56:36;101355.53;;;10.53;100.00
60355;BME280;46198;51.464;-0.066;2023-05-11T00:59:04;101369.31;;;10.52;100.00
60355;BME280;46198;51.464;-0.066;2023-05-11T01:01:32;101367.00;;;10.49;100.00
60355;BME280;46198;51.464;-0.066;2023-05-11T01:04:02;101369.91;;;10.47;100.00
60355;BME280;46198;51.464;-0.066;2023-05-11T01:06:36;101363.25;;;10.43;100.00
60355;BME280;46198;51.464;-0.066;2023-05-11T01:09:14;101363.25;;;10.43;100.00
60355;BME280;46198;51.464;-0.066;2023-05-11T01:11:52;101363.84;;;10.38;100.00
60355;BME280;46198;51.464;-0.066;2023-05-11T01:14:25;101366.78;;;10.37;100.00
60355;BME280;46198;51.464;-0.066;2023-05-11T01:17:01;101365.50;;;10.33;100.00
60355;BME280;46198;51.464;-0.066;2023-05-11T01:19:40;101373.66;;;10.33;100.00
60355;BME280;46198;51.464;-0.066;2023-05-11T01:22:27;101365.09;;;10.29;100.00
60355;BME280;46198;51.464;-0.066;2023-05-11T01:25:09;101367.31;;;10.26;100.00
60355;BME280;46198;51.464;-0.066;2023-05-11T01:28:00;101367.75;;;10.23;100.00
60355;BME280;46198;51.464;-0.066;2023-05-11T01:30:42;101368.97;;;10.20;100.00
60355;BME280;46198;51.464;-0.066;2023-05-11T01:33:15;101377.34;;;10.18;100.00
60355;BME280;46198;51.464;-0.066;2023-05-11T01:35:50;101380.25;;;10.17;100.00
60355;BME280;46198;51.464;-0.066;2023-05-11T01:38:20;101374.41;;;10.13;100.00
60355;BME280;46198;51.464;-0.066;2023-05-11T01:40:56;101380.25;;;10.10;100.00
60355;BME280;46198;51.464;-0.066;2023-05-11T01:43:27;101381.91;;;10.11;100.00
60355;BME280;46198;51.464;-0.066;2023-05-11T01:46:00;101383.97;;;10.09;100.00
60355;BME280;46198;51.464;-0.066;2023-05-11T01:48:34;101384.19;;;10.08;100.00
60355;BME280;46198;51.464;-0.066;2023-05-11T01:51:04;101384.38;;;10.06;100.00
60355;BME280;46198;51.464;-0.066;2023-05-11T01:53:35;101389.81;;;10.06;100.00
60355;BME280;46198;51.464;-0.066;2023-05-11T01:56:05;101389.81;;;10.06;100.00
60355;BME280;46198;51.464;-0.066;2023-05-11T01:58:36;101391.50;;;10.07;100.00
60355;BME280;46198;51.464;-0.066;2023-05-11T02:01:07;101396.53;;;10.10;100.00
60355;BME280;46198;51.464;-0.066;2023-05-11T02:03:38;101393.59;;;10.12;100.00
60355;BME280;46198;51.464;-0.066;2023-05-11T02:06:10;101391.50;;;10.14;100.00
60355;BME280;46198;51.464;-0.066;2023-05-11T02:08:39;101391.31;;;10.15;100.00
60355;BME280;46198;51.464;-0.066;2023-05-11T02:11:08;101390.91;;;10.18;100.00
60355;BME280;46198;51.464;-0.066;2023-05-11T02:13:38;101399.47;;;10.22;100.00
60355;BME280;46198;51.464;-0.066;2023-05-11T02:16:10;101396.56;;;10.24;100.00
60355;BME280;46198;51.464;-0.066;2023-05-11T02:18:39;101395.50;;;10.25;100.00
60355;BME280;46198;51.464;-0.066;2023-05-11T02:21:08;101395.97;;;10.28;100.00
60355;BME280;46198;51.464;-0.066;2023-05-11T02:23:38;101393.91;;;10.30;100.00
60355;BME280;46198;51.464;-0.066;2023-05-11T02:26:08;101402.88;;;10.31;100.00
60355;BME280;46198;51.464;-0.066;2023-05-11T02:28:38;101401.44;;;10.35;100.00
60355;BME280;46198;51.464;-0.066;2023-05-11T02:31:15;101399.56;;;10.35;100.00
60355;BME280;46198;51.464;-0.066;2023-05-11T02:33:48;101402.91;;;10.37;100.00
60355;BME280;46198;51.464;-0.066;2023-05-11T02:36:20;101407.09;;;10.40;100.00
60355;BME280;46198;51.464;-0.066;2023-05-11T02:38:56;101403.31;;;10.41;100.00
60355;BME280;46198;51.464;-0.066;2023-05-11T02:41:27;101400.41;;;10.42;100.00
60355;BME280;46198;51.464;-0.066;2023-05-11T02:44:01;101407.31;;;10.45;100.00
60355;BME280;46198;51.464;-0.066;2023-05-11T02:46:35;101415.47;;;10.45;100.00
60355;BME280;46198;51.464;-0.066;2023-05-11T02:49:08;101410.88;;;10.46;100.00
60355;BME280;46198;51.464;-0.066;2023-05-11T02:51:38;101413.34;;;10.47;100.00
60355;BME280;46198;51.464;-0.066;2023-05-11T02:54:09;101409.63;;;10.48;100.00
60355;BME280;46198;51.464;-0.066;2023-05-11T02:56:42;101408.78;;;10.48;100.00
60355;BME280;46198;51.464;-0.066;2023-05-11T02:59:12;101417.13;;;10.53;100.00
60355;BME280;46198;51.464;-0.066;2023-05-11T03:01:43;101412.56;;;10.53;100.00
60355;BME280;46198;51.464;-0.066;2023-05-11T03:04:12;101409.19;;;10.51;100.00
60355;BME280;46198;51.464;-0.066;2023-05-11T03:06:40;101421.72;;;10.52;100.00
60355;BME280;46198;51.464;-0.066;2023-05-11T03:09:09;101413.81;;;10.51;100.00
60355;BME280;46198;51.464;-0.066;2023-05-11T03:11:52;101409.19;;;10.51;100.00
60355;BME280;46198;51.464;-0.066;2023-05-11T03:14:20;101410.22;;;10.50;100.00
60355;BME280;46198;51.464;-0.066;2023-05-11T03:16:51;101410.88;;;10.52;100.00
60355;BME280;46198;51.464;-0.066;2023-05-11T03:19:19;101409.19;;;10.51;100.00
60355;BME280;46198;51.464;-0.066;2023-05-11T03:21:50;101405.66;;;10.51;100.00
60355;BME280;46198;51.464;-0.066;2023-05-11T03:24:19;101403.13;;;10.49;100.00
60355;BME280;46198;51.464;-0.066;2023-05-11T03:26:49;101405.84;;;10.49;100.00
60355;BME280;46198;51.464;-0.066;2023-05-11T03:29:18;101398.34;;;10.51;100.00
60355;BME280;46198;51.464;-0.066;2023-05-11T03:31:47;101403.13;;;10.49;100.00
60355;BME280;46198;51.464;-0.066;2023-05-11T03:34:20;101402.50;;;10.47;100.00
60355;BME280;46198;51.464;-0.066;2023-05-11T03:36:49;101403.53;;;10.46;100.00
60355;BME280;46198;51.464;-0.066;2023-05-11T03:39:21;101405.63;;;10.44;100.00
60355;BME280;46198;51.464;-0.066;2023-05-11T03:41:52;101400.19;;;10.44;100.00
60355;BME280;46198;51.464;-0.066;2023-05-11T03:44:22;101394.75;;;10.37;100.00
60355;BME280;46198;51.464;-0.066;2023-05-11T03:46:52;101401.22;;;10.36;100.00
60355;BME280;46198;51.464;-0.066;2023-05-11T03:49:23;101401.44;;;10.35;100.00
60355;BME280;46198;51.464;-0.066;2023-05-11T03:51:52;101399.97;;;10.32;100.00
60355;BME280;46198;51.464;-0.066;2023-05-11T03:54:20;101403.69;;;10.31;100.00
60355;BME280;46198;51.464;-0.066;2023-05-11T03:56:49;101400.78;;;10.33;100.00
60355;BME280;46198;51.464;-0.066;2023-05-11T03:59:18;101405.38;;;10.32;100.00
60355;BME280;46198;51.464;-0.066;2023-05-11T04:01:47;101405.59;;;10.31;100.00
60355;BME280;46198;51.464;-0.066;2023-05-11T04:04:19;101410.41;;;10.29;100.00
60355;BME280;46198;51.464;-0.066;2023-05-11T04:06:50;101402.44;;;10.27;100.00
60355;BME280;46198;51.464;-0.066;2023-05-11T04:09:20;101412.25;;;10.28;100.00
60355;BME280;46198;51.464;-0.066;2023-05-11T04:11:50;101405.31;;;10.26;100.00
60355;BME280;46198;51.464;-0.066;2023-05-11T04:14:18;101406.38;;;10.25;100.00
60355;BME280;46198;51.464;-0.066;2023-05-11T04:16:46;101405.53;;;10.24;100.00
60355;BME280;46198;51.464;-0.066;2023-05-11T04:19:15;101410.13;;;10.24;100.00
60355;BME280;46198;51.464;-0.066;2023-05-11T04:22:09;101412.84;;;10.24;100.00
60355;BME280;46198;51.464;-0.066;2023-05-11T04:24:38;101410.13;;;10.24;100.00
60355;BME280;46198;51.464;-0.066;2023-05-11T04:27:06;101416.59;;;10.23;100.00
60355;BME280;46198;51.464;-0.066;2023-05-11T04:29:35;101412.22;;;10.21;100.00
60355;BME280;46198;51.464;-0.066;2023-05-11T04:32:04;101407.63;;;10.22;100.00
60355;BME280;46198;51.464;-0.066;2023-05-11T04:34:32;101414.94;;;10.21;100.00
60355;BME280;46198;51.464;-0.066;2023-05-11T04:37:02;101413.44;;;10.19;100.00
60355;BME280;46198;51.464;-0.066;2023-05-11T04:39:35;101412.41;;;10.20;100.00
60355;BME280;46198;51.464;-0.066;2023-05-11T04:42:04;101414.09;;;10.21;100.00
60355;BME280;46198;51.464;-0.066;2023-05-11T04:44:32;101418.69;;;10.20;100.00
60355;BME280;46198;51.464;-0.066;2023-05-11T04:47:02;101408.44;;;10.23;100.00
60355;BME280;46198;51.464;-0.066;2023-05-11T04:49:31;101412.63;;;10.25;100.00
60355;BME280;46198;51.464;-0.066;2023-05-11T04:52:00;101412.84;;;10.24;100.00
60355;BME280;46198;51.464;-0.066;2023-05-11T04:54:29;101424.81;;;10.29;100.00
60355;BME280;46198;51.464;-0.066;2023-05-11T04:56:58;101413.72;;;10.31;100.00
60355;BME280;46198;51.464;-0.066;2023-05-11T04:59:27;101414.56;;;10.31;100.00
60355;BME280;46198;51.464;-0.066;2023-05-11T05:01:55;101416.66;;;10.36;100.00
60355;BME280;46198;51.464;-0.066;2023-05-11T05:04:23;101422.31;;;10.41;100.00
60355;BME280;46198;51.464;-0.066;2023-05-11T05:06:53;101422.56;;;10.46;100.00
60355;BME280;46198;51.464;-0.066;2023-05-11T05:09:21;101427.38;;;10.51;100.00
60355;BME280;46198;51.464;-0.066;2023-05-11T05:11:49;101421.31;;;10.55;100.00
60355;BME280;46198;51.464;-0.066;2023-05-11T05:14:18;101426.13;;;10.60;100.00
60355;BME280;46198;51.464;-0.066;2023-05-11T05:16:47;101436.16;;;10.66;100.00
60355;BME280;46198;51.464;-0.066;2023-05-11T05:19:15;101438.47;;;10.69;100.00
60355;BME280;46198;51.464;-0.066;2023-05-11T05:21:43;101430.53;;;10.74;100.00
60355;BME280;46198;51.464;-0.066;2023-05-11T05:24:11;101440.38;;;10.82;100.00
60355;BME280;46198;51.464;-0.066;2023-05-11T05:26:39;101441.00;;;10.91;100.00
60355;BME280;46198;51.464;-0.066;2023-05-11T05:29:10;101436.22;;;10.93;100.00
60355;BME280;46198;51.464;-0.066;2023-05-11T05:31:39;101437.50;;;10.97;100.00
60355;BME280;46198;51.464;-0.066;2023-05-11T05:34:08;101434.75;;;11.03;100.00
60355;BME280;46198;51.464;-0.066;2023-05-11T05:36:36;101439.78;;;11.06;100.00
60355;BME280;46198;51.464;-0.066;2023-05-11T05:39:05;101439.78;;;11.06;100.00
60355;BME280;46198;51.464;-0.066;2023-05-11T05:41:35;101443.09;;;11.02;100.00
60355;BME280;46198;51.464;-0.066;2023-05-11T05:44:07;101455.88;;;11.08;100.00
60355;BME280;46198;51.464;-0.066;2023-05-11T05:46:39;101443.13;;;11.15;100.00
60355;BME280;46198;51.464;-0.066;2023-05-11T05:49:08;101453.16;;;11.08;100.00
60355;BME280;46198;51.464;-0.066;2023-05-11T05:51:36;101452.31;;;11.01;100.00
60355;BME280;46198;51.464;-0.066;2023-05-11T05:54:05;101460.28;;;11.09;100.00
60355;BME280;46198;51.464;-0.066;2023-05-11T05:56:33;101457.34;;;11.17;100.00
60355;BME280;46198;51.464;-0.066;2023-05-11T05:59:03;101457.56;;;11.16;100.00
60355;BME280;46198;51.464;-0.066;2023-05-11T06:01:32;101455.66;;;11.23;100.00
60355;BME280;46198;51.464;-0.066;2023-05-11T06:04:02;101465.91;;;11.21;100.00
60355;BME280;46198;51.464;-0.066;2023-05-11T06:06:31;101463.41;;;11.26;100.00
60355;BME280;46198;51.464;-0.066;2023-05-11T06:08:59;101460.25;;;11.29;100.00
60355;BME280;46198;51.464;-0.066;2023-05-11T06:11:27;101458.59;;;11.28;100.00
60355;BME280;46198;51.464;-0.066;2023-05-11T06:13:55;101452.31;;;11.34;100.00
60355;BME280;46198;51.464;-0.066;2023-05-11T06:16:24;101455.47;;;11.38;100.00
60355;BME280;46198;51.464;-0.066;2023-05-11T06:18:53;101456.53;;;11.43;100.00
60355;BME280;46198;51.464;-0.066;2023-05-11T06:21:24;101462.59;;;11.32;100.00
60355;BME280;46198;51.464;-0.066;2023-05-11T06:23:52;101458.41;;;11.36;100.00
60355;BME280;46198;51.464;-0.066;2023-05-11T06:26:20;101460.09;;;11.24;100.00
60355;BME280;46198;51.464;-0.066;2023-05-11T06:28:51;101465.06;;;11.20;100.00
60355;BME280;46198;51.464;-0.066;2023-05-11T06:31:20;101458.84;;;11.26;100.00
60355;BME280;46198;51.464;-0.066;2023-05-11T06:33:50;101457.97;;;11.32;100.00
60355;BME280;46198;51.464;-0.066;2023-05-11T06:36:24;101462.56;;;11.45;100.00
60355;BME280;46198;51.464;-0.066;2023-05-11T06:38:52;101469.06;;;11.44;100.00
60355;BME280;46198;51.464;-0.066;2023-05-11T06:41:21;101465.72;;;11.36;100.00
60355;BME280;46198;51.464;-0.066;2023-05-11T06:43:53;101464.88;;;11.48;100.00
60355;BME280;46198;51.464;-0.066;2023-05-11T06:46:34;101474.06;;;11.47;100.00
60355;BME280;46198;51.464;-0.066;2023-05-11T06:49:11;101477.63;;;11.54;100.00
60355;BME280;46198;51.464;-0.066;2023-05-11T06:51:42;101481.19;;;11.42;100.00
60355;BME280;46198;51.464;-0.066;2023-05-11T06:54:10;101486.63;;;11.55;100.00
60355;BME280;46198;51.464;-0.066;2023-05-11T06:56:38;101477.63;;;11.68;100.00
60355;BME280;46198;51.464;-0.066;2023-05-11T06:59:10;101489.53;;;11.73;100.00
60355;BME280;46198;51.464;-0.066;2023-05-11T07:01:38;101483.03;;;11.81;100.00
60355;BME280;46198;51.464;-0.066;2023-05-11T07:04:06;101484.50;;;11.90;100.00
60355;BME280;46198;51.464;-0.066;2023-05-11T07:06:34;101482.84;;;11.89;100.00
60355;BME280;46198;51.464;-0.066;2023-05-11T07:09:04;101479.09;;;11.70;100.00
60355;BME280;46198;51.464;-0.066;2023-05-11T07:11:35;101477.19;;;11.84;100.00
60355;BME280;46198;51.464;-0.066;2023-05-11T07:14:04;101481.97;;;11.82;100.00
60355;BME280;46198;51.464;-0.066;2023-05-11T07:16:36;101483.44;;;11.91;100.00
60355;BME280;46198;51.464;-0.066;2023-05-11T07:19:06;101494.53;;;12.03;100.00
60355;BME280;46198;51.464;-0.066;2023-05-11T07:21:35;101488.00;;;12.17;100.00
60355;BME280;46198;51.464;-0.066;2023-05-11T07:24:08;101489.34;;;12.47;100.00
60355;BME280;46198;51.464;-0.066;2023-05-11T07:26:36;101489.66;;;12.70;100.00
60355;BME280;46198;51.464;-0.066;2023-05-11T07:29:05;101484.38;;;13.14;100.00
60355;BME280;46198;51.464;-0.066;2023-05-11T07:31:33;101489.69;;;13.34;100.00
60355;BME280;46198;51.464;-0.066;2023-05-11T07:34:02;101482.19;;;13.22;100.00
60355;BME280;46198;51.464;-0.066;2023-05-11T07:36:32;101488.34;;;13.43;100.00
60355;BME280;46198;51.464;-0.066;2023-05-11T07:39:00;101482.84;;;13.49;100.00
60355;BME280;46198;51.464;-0.066;2023-05-11T07:41:30;101486.06;;;13.40;100.00
60355;BME280;46198;51.464;-0.066;2023-05-11T07:43:59;101485.88;;;13.35;100.00
60355;BME280;46198;51.464;-0.066;2023-05-11T07:46:30;101482.97;;;13.80;100.00
60355;BME280;46198;51.464;-0.066;2023-05-11T07:49:00;101487.47;;;13.49;100.00
60355;BME280;46198;51.464;-0.066;2023-05-11T07:51:44;101485.13;;;14.14;100.00
60355;BME280;46198;51.464;-0.066;2023-05-11T07:54:12;101491.56;;;14.02;100.00
60355;BME280;46198;51.464;-0.066;2023-05-11T07:56:42;101480.63;;;14.38;100.00
60355;BME280;46198;51.464;-0.066;2023-05-11T07:59:24;101492.63;;;14.86;100.00
60355;BME280;46198;51.464;-0.066;2023-05-11T08:01:52;101492.53;;;14.93;100.00
60355;BME280;46198;51.464;-0.066;2023-05-11T08:04:22;101487.97;;;15.17;100.00
60355;BME280;46198;51.464;-0.066;2023-05-11T08:06:50;101490.75;;;15.52;100.00
60355;BME280;46198;51.464;-0.066;2023-05-11T08:09:18;101494.94;;;15.55;100.00
60355;BME280;46198;51.464;-0.066;2023-05-11T08:15:10;101500.19;;;15.44;100.00
60355;BME280;46198;51.464;-0.066;2023-05-11T08:17:38;101498.34;;;15.26;100.00
60355;BME280;46198;51.464;-0.066;2023-05-11T08:20:09;101489.09;;;14.97;100.00
60355;BME280;46198;51.464;-0.066;2023-05-11T08:22:38;101499.66;;;15.24;100.00
60355;BME280;46198;51.464;-0.066;2023-05-11T08:25:07;101506.56;;;15.38;100.00
60355;BME280;46198;51.464;-0.066;2023-05-11T08:27:35;101497.47;;;15.14;100.00
60355;BME280;46198;51.464;-0.066;2023-05-11T08:33:26;101506.56;;;15.38;100.00
60355;BME280;46198;51.464;-0.066;2023-05-11T08:35:57;101495.25;;;15.23;100.00
60355;BME280;46198;51.464;-0.066;2023-05-11T08:38:26;101499.56;;;15.00;100.00
60355;BME280;46198;51.464;-0.066;2023-05-11T08:40:55;101506.69;;;15.32;100.00
60355;BME280;46198;51.464;-0.066;2023-05-11T08:43:24;101510.59;;;15.36;100.00
60355;BME280;46198;51.464;-0.066;2023-05-11T08:45:56;101510.16;;;15.50;100.00
60355;BME280;46198;51.464;-0.066;2023-05-11T08:48:29;101503.41;;;15.53;100.00
60355;BME280;46198;51.464;-0.066;2023-05-11T08:50:58;101520.38;;;15.43;100.00
60355;BME280;46198;51.464;-0.066;2023-05-11T08:53:27;101504.19;;;15.30;100.00
60355;BME280;46198;51.464;-0.066;2023-05-11T08:55:56;101514.44;;;15.46;100.00
60355;BME280;46198;51.464;-0.066;2023-05-11T08:58:25;101508.97;;;15.46;100.00
60355;BME280;46198;51.464;-0.066;2023-05-11T09:00:54;101513.59;;;15.46;100.00
60355;BME280;46198;51.464;-0.066;2023-05-11T09:03:22;101517.03;;;15.41;100.00
60355;BME280;46198;51.464;-0.066;2023-05-11T09:05:52;101517.97;;;15.23;100.00
60355;BME280;46198;51.464;-0.066;2023-05-11T09:08:21;101516.28;;;15.22;100.00
60355;BME280;46198;51.464;-0.066;2023-05-11T09:10:50;101512.44;;;15.12;100.00
60355;BME280;46198;51.464;-0.066;2023-05-11T09:13:19;101518.38;;;15.08;100.00
60355;BME280;46198;51.464;-0.066;2023-05-11T09:15:47;101507.38;;;15.27;100.00
60355;BME280;46198;51.464;-0.066;2023-05-11T09:18:15;101513.97;;;15.49;100.00
60355;BME280;46198;51.464;-0.066;2023-05-11T09:24:27;101512.44;;;15.65;100.00
60355;BME280;46198;51.464;-0.066;2023-05-11T09:27:05;101506.69;;;15.55;100.00
60355;BME280;46198;51.464;-0.066;2023-05-11T09:29:34;101513.50;;;15.52;100.00
60355;BME280;46198;51.464;-0.066;2023-05-11T09:32:03;101511.59;;;15.65;100.00
60355;BME280;46198;51.464;-0.066;2023-05-11T09:34:31;101506.50;;;15.68;100.00
60355;BME280;46198;51.464;-0.066;2023-05-11T09:36:59;101504.00;;;15.90;100.00
60355;BME280;46198;51.464;-0.066;2023-05-11T09:39:30;101503.44;;;15.88;100.00
60355;BME280;46198;51.464;-0.066;2023-05-11T09:42:20;101506.28;;;16.05;100.00
60355;BME280;46198;51.464;-0.066;2023-05-11T09:44:48;101509.78;;;16.41;100.00
60355;BME280;46198;51.464;-0.066;2023-05-11T09:47:17;101507.84;;;16.42;100.00
60355;BME280;46198;51.464;-0.066;2023-05-11T09:49:47;101509.28;;;16.44;100.00
60355;BME280;46198;51.464;-0.066;2023-05-11T09:52:16;101504.06;;;16.71;100.00
60355;BME280;46198;51.464;-0.066;2023-05-11T09:54:50;101505.50;;;16.86;100.00
60355;BME280;46198;51.464;-0.066;2023-05-11T09:57:23;101506.03;;;16.99;100.00
60355;BME280;46198;51.464;-0.066;2023-05-11T09:59:51;101498.34;;;17.01;100.00
60355;BME280;46198;51.464;-0.066;2023-05-11T10:02:21;101503.31;;;17.16;100.00
60355;BME280;46198;51.464;-0.066;2023-05-11T10:04:51;101503.50;;;17.26;100.00
60355;BME280;46198;51.464;-0.066;2023-05-11T10:07:27;101493.84;;;17.24;100.00
60355;BME280;46198;51.464;-0.066;2023-05-11T10:09:58;101494.16;;;17.44;100.00
60355;BME280;46198;51.464;-0.066;2023-05-11T10:12:28;101488.22;;;17.69;100.00
60355;BME280;46198;51.464;-0.066;2023-05-11T10:17:54;101491.56;;;18.05;100.00
60355;BME280;46198;51.464;-0.066;2023-05-11T10:20:24;101484.09;;;17.84;100.00
60355;BME280;46198;51.464;-0.066;2023-05-11T10:22:53;101490.31;;;17.96;100.00
60355;BME280;46198;51.464;-0.066;2023-05-11T10:25:24;101484.06;;;18.01;100.00
60355;BME280;46198;51.464;-0.066;2023-05-11T10:27:53;101481.97;;;18.08;100.00
60355;BME280;46198;51.464;-0.066;2023-05-11T10:30:22;101479.84;;;18.15;100.00
60355;BME280;46198;51.464;-0.066;2023-05-11T10:32:51;101480.94;;;18.36;100.00
60355;BME280;46198;51.464;-0.066;2023-05-11T10:35:20;101478.47;;;18.61;100.00
60355;BME280;46198;51.464;-0.066;2023-05-11T10:37:49;101476.94;;;18.71;100.00
60355;BME280;46198;51.464;-0.066;2023-05-11T10:40:18;101473.38;;;18.70;100.00
60355;BME280;46198;51.464;-0.066;2023-05-11T10:46:02;101475.91;;;18.28;100.00
60355;BME280;46198;51.464;-0.066;2023-05-11T10:49:01;101476.53;;;18.35;100.00
60355;BME280;46198;51.464;-0.066;2023-05-11T10:51:58;101469.28;;;18.73;100.00
60355;BME280;46198;51.464;-0.066;2023-05-11T10:54:47;101462.94;;;18.99;100.00
60355;BME280;46198;51.464;-0.066;2023-05-11T10:57:33;101466.19;;;18.20;100.00
60355;BME280;46198;51.464;-0.066;2023-05-11T11:00:50;101477.66;;;18.61;100.00
60355;BME280;46198;51.464;-0.066;2023-05-11T11:03:27;101467.28;;;18.68;100.00
60355;BME280;46198;51.464;-0.066;2023-05-11T11:05:56;101461.41;;;18.81;100.00
60355;BME280;46198;51.464;-0.066;2023-05-11T11:08:26;101467.59;;;18.72;100.00
60355;BME280;46198;51.464;-0.066;2023-05-11T11:10:55;101456.75;;;18.60;100.00
60355;BME280;46198;51.464;-0.066;2023-05-11T11:13:23;101466.53;;;18.51;100.00
60355;BME280;46198;51.464;-0.066;2023-05-11T11:16:19;101474.38;;;18.86;100.00
60355;BME280;46198;51.464;-0.066;2023-05-11T11:22:02;101455.91;;;19.46;100.00
60355;BME280;46198;51.464;-0.066;2023-05-11T11:24:43;101456.44;;;19.43;100.00
60355;BME280;46198;51.464;-0.066;2023-05-11T11:27:54;101459.69;;;19.72;100.00
60355;BME280;46198;51.464;-0.066;2023-05-11T11:30:24;101451.41;;;20.14;100.00
60355;BME280;46198;51.464;-0.066;2023-05-11T11:32:53;101444.56;;;20.37;100.00
60355;BME280;46198;51.464;-0.066;2023-05-11T11:35:45;101439.44;;;20.67;100.00
60355;BME280;46198;51.464;-0.066;2023-05-11T11:38:16;101445.53;;;20.69;100.00
60355;BME280;46198;51.464;-0.066;2023-05-11T11:40:45;101437.00;;;20.91;100.00
60355;BME280;46198;51.464;-0.066;2023-05-11T11:43:20;101440.31;;;20.98;100.00
60355;BME280;46198;51.464;-0.066;2023-05-11T11:45:50;101443.66;;;21.31;100.00
60355;BME280;46198;51.464;-0.066;2023-05-11T11:48:28;101440.88;;;21.51;94.78
60355;BME280;46198;51.464;-0.066;2023-05-11T11:51:04;101445.28;;;21.52;84.16
60355;BME280;46198;51.464;-0.066;2023-05-11T11:54:04;101440.31;;;20.98;100.00
60355;BME280;46198;51.464;-0.066;2023-05-11T12:00:40;101446.47;;;19.69;83.15
60355;BME280;46198;51.464;-0.066;2023-05-11T12:03:09;101449.75;;;19.34;86.11
60355;BME280;46198;51.464;-0.066;2023-05-11T12:05:38;101446.75;;;19.03;84.68
60355;BME280;46198;51.464;-0.066;2023-05-11T12:08:12;101446.47;;;19.04;86.74
60355;BME280;46198;51.464;-0.066;2023-05-11T12:10:42;101443.41;;;18.74;87.80
60355;BME280;46198;51.464;-0.066;2023-05-11T12:13:12;101449.28;;;18.33;87.49
60355;BME280;46198;51.464;-0.066;2023-05-11T12:15:40;101452.56;;;18.08;87.17
60355;BME280;46198;51.464;-0.066;2023-05-11T12:18:21;101460.78;;;17.69;90.96
60355;BME280;46198;51.464;-0.066;2023-05-11T12:20:52;101464.03;;;17.49;88.53
60355;BME280;46198;51.464;-0.066;2023-05-11T12:27:04;101467.41;;;17.35;90.87
60355;BME280;46198;51.464;-0.066;2023-05-11T12:29:32;101463.19;;;17.15;91.79
60355;BME280;46198;51.464;-0.066;2023-05-11T12:32:00;101461.28;;;16.99;94.52
60355;BME280;46198;51.464;-0.066;2023-05-11T12:34:29;101467.53;;;16.94;100.00
60355;BME280;46198;51.464;-0.066;2023-05-11T12:36:57;101458.47;;;16.94;100.00
60355;BME280;46198;51.464;-0.066;2023-05-11T12:39:27;101469.91;;;16.91;100.00
60355;BME280;46198;51.464;-0.066;2023-05-11T12:41:56;101475.00;;;16.70;100.00
60355;BME280;46198;51.464;-0.066;2023-05-11T12:44:26;101467.22;;;16.50;100.00
60355;BME280;46198;51.464;-0.066;2023-05-11T12:46:54;101460.94;;;16.38;100.00
60355;BME280;46198;51.464;-0.066;2023-05-11T12:49:23;101462.13;;;16.42;100.00
60355;BME280;46198;51.464;-0.066;2023-05-11T12:52:00;101468.75;;;16.46;100.00
60355;BME280;46198;51.464;-0.066;2023-05-11T12:54:31;101469.59;;;16.47;100.00
60355;BME280;46198;51.464;-0.066;2023-05-11T12:57:03;101466.94;;;16.23;100.00
60355;BME280;46198;51.464;-0.066;2023-05-11T12:59:35;101472.31;;;16.18;100.00
60355;BME280;46198;51.464;-0.066;2023-05-11T13:02:06;101473.03;;;16.13;100.00
60355;BME280;46198;51.464;-0.066;2023-05-11T13:04:34;101470.66;;;16.05;100.00
60355;BME280;46198;51.464;-0.066;2023-05-11T13:07:03;101469.47;;;16.13;100.00
60355;BME280;46198;51.464;-0.066;2023-05-11T13:09:31;101465.19;;;16.05;100.00
60355;BME280;46198;51.464;-0.066;2023-05-11T13:12:13;101470.06;;;16.03;100.00
60355;BME280;46198;51.464;-0.066;2023-05-11T13:14:48;101457.78;;;16.06;100.00
60355;BME280;46198;51.464;-0.066;2023-05-11T13:17:33;101459.34;;;16.02;100.00
60355;BME280;46198;51.464;-0.066;2023-05-11T13:20:17;101464.72;;;15.97;100.00